createdAt,value
2023-09-27T00:00:49.327Z,100449.09
2023-09-27T00:03:33.666Z,100449.00
2023-09-27T00:06:18.015Z,100415.78
2023-09-27T00:09:02.172Z,100407.16
2023-09-27T00:11:46.386Z,100438.72
2023-09-27T00:14:30.592Z,100413.44
2023-09-27T00:17:16.224Z,100402.19
2023-09-27T00:20:00.917Z,100437.03
2023-09-27T00:22:46.635Z,100398.81
2023-09-27T00:25:31.256Z,100401.69
2023-09-27T00:28:15.392Z,100395.53
2023-09-27T00:30:59.629Z,100421.72
2023-09-27T00:33:45.291Z,100402.78
2023-09-27T00:36:29.719Z,100385.97
2023-09-27T00:39:14.243Z,100398.69
2023-09-27T00:41:58.726Z,100418.25
2023-09-27T00:44:42.879Z,100425.69
2023-09-27T00:47:27.136Z,100415.97
2023-09-27T00:50:13.106Z,100384.38
2023-09-27T00:52:57.402Z,100397.03
2023-09-27T00:55:42.157Z,100408.22
2023-09-27T00:58:27.017Z,100432.22
2023-09-27T01:01:11.887Z,100425.63
2023-09-27T01:03:56.352Z,100393.81
2023-09-27T01:06:42.336Z,100397.56
2023-09-27T01:09:26.430Z,100427.66
2023-09-27T01:12:10.691Z,100401.97
2023-09-27T01:14:54.850Z,100423.75
2023-09-27T01:17:38.986Z,100394.09
2023-09-27T01:20:23.233Z,100417.13
2023-09-27T01:23:09.331Z,100392.03
2023-09-27T01:26:00.332Z,100416.31
2023-09-27T01:28:46.944Z,100377.56
2023-09-27T01:31:31.303Z,100347.09
2023-09-27T01:34:15.674Z,100405.91
2023-09-27T01:37:00.498Z,100412.13
2023-09-27T01:39:47.152Z,100401.41
2023-09-27T01:42:31.298Z,100410.41
2023-09-27T01:45:15.496Z,100383.47
2023-09-27T01:48:00.120Z,100417.19
2023-09-27T01:50:44.463Z,100380.16
2023-09-27T01:53:28.608Z,100404.22
2023-09-27T01:56:15.278Z,100408.97
2023-09-27T01:58:59.435Z,100414.53
2023-09-27T02:01:43.825Z,100384.69
2023-09-27T02:04:28.027Z,100383.47
2023-09-27T02:07:12.388Z,100410.25
2023-09-27T02:09:56.639Z,100382.72
2023-09-27T02:12:42.707Z,100412.72
2023-09-27T02:15:27.156Z,100366.31
2023-09-27T02:18:13.087Z,100370.34
2023-09-27T02:20:58.113Z,100370.22
2023-09-27T02:24:02.208Z,100406.84
2023-09-27T02:26:46.453Z,100399.41
2023-09-27T02:29:32.506Z,100332.69
2023-09-27T02:32:16.646Z,100398.94
2023-09-27T02:35:00.791Z,100408.00
2023-09-27T02:37:46.568Z,100412.31
2023-09-27T02:40:30.702Z,100412.81
2023-09-27T02:43:14.710Z,100409.16
2023-09-27T02:46:00.361Z,100377.44
2023-09-27T02:48:44.752Z,100395.50
2023-09-27T02:51:29.607Z,100386.38
2023-09-27T02:54:15.407Z,100381.53
2023-09-27T02:56:59.496Z,100373.50
2023-09-27T02:59:43.844Z,100382.72
2023-09-27T03:02:29.831Z,100387.38
2023-09-27T03:05:14.315Z,100416.06
2023-09-27T03:07:58.766Z,100388.47
2023-09-27T03:10:43.364Z,100412.59
2023-09-27T03:13:27.612Z,100370.56
2023-09-27T03:16:12.100Z,100389.69
2023-09-27T03:18:59.633Z,100414.31
2023-09-27T03:21:43.775Z,100409.31
2023-09-27T03:24:28.140Z,100374.75
2023-09-27T03:27:12.411Z,100420.78
2023-09-27T03:29:56.585Z,100386.38
2023-09-27T03:32:40.820Z,100409.56
2023-09-27T03:35:26.690Z,100415.50
2023-09-27T03:38:11.158Z,100414.81
2023-09-27T03:40:55.372Z,100385.91
2023-09-27T03:43:40.027Z,100381.34
2023-09-27T03:46:24.535Z,100409.47
2023-09-27T03:49:08.820Z,100409.38
2023-09-27T03:51:54.592Z,100410.56
2023-09-27T03:54:39.075Z,100414.78
2023-09-27T03:57:23.430Z,100414.88
2023-09-27T04:00:10.520Z,100383.03
2023-09-27T04:02:57.095Z,100382.28
2023-09-27T04:05:41.871Z,100419.94
2023-09-27T04:08:28.091Z,100393.81
2023-09-27T04:11:13.030Z,100413.59
2023-09-27T04:13:57.381Z,100396.84
2023-09-27T04:16:41.572Z,100390.78
2023-09-27T04:19:25.783Z,100419.38
2023-09-27T04:22:10.095Z,100418.44
2023-09-27T04:24:56.012Z,100422.06
2023-09-27T04:27:40.231Z,100408.88
2023-09-27T04:30:25.981Z,100423.00
2023-09-27T04:33:10.448Z,100430.66
2023-09-27T04:35:54.702Z,100396.31
2023-09-27T04:38:39.156Z,100407.03
2023-09-27T04:41:24.706Z,100401.16
2023-09-27T04:44:09.181Z,100433.72
2023-09-27T04:46:53.604Z,100399.91
2023-09-27T04:49:37.951Z,100412.63
2023-09-27T04:52:22.819Z,100435.59
2023-09-27T04:55:08.683Z,100437.69
2023-09-27T04:57:55.827Z,100442.66
2023-09-27T05:00:40.482Z,100398.09
2023-09-27T05:03:24.823Z,100404.69
2023-09-27T05:06:09.223Z,100423.63
2023-09-27T05:08:53.853Z,100445.06
2023-09-27T05:11:38.231Z,100437.00
2023-09-27T05:14:24.201Z,100438.97
2023-09-27T05:17:08.506Z,100415.56
2023-09-27T05:19:53.825Z,100439.19
2023-09-27T05:22:37.976Z,100408.16
2023-09-27T05:25:24.214Z,100435.31
2023-09-27T05:28:08.776Z,100414.63
2023-09-27T05:30:54.277Z,100441.53
2023-09-27T05:33:38.576Z,100452.84
2023-09-27T05:36:22.772Z,100406.81
2023-09-27T05:39:09.440Z,100418.00
2023-09-27T05:41:53.872Z,100444.19
2023-09-27T05:44:38.085Z,100443.94
2023-09-27T05:47:25.846Z,100445.66
2023-09-27T05:50:12.700Z,100452.88
2023-09-27T05:52:57.411Z,100451.00
2023-09-27T05:55:42.751Z,100454.41
2023-09-27T05:58:26.754Z,100464.88
2023-09-27T06:01:11.800Z,100436.31
2023-09-27T06:03:57.548Z,100433.50
2023-09-27T06:06:41.435Z,100454.13
2023-09-27T06:09:26.617Z,100451.00
2023-09-27T06:12:11.598Z,100437.13
2023-09-27T06:14:56.279Z,100465.97
2023-09-27T06:17:40.423Z,100452.41
2023-09-27T06:20:31.408Z,100458.34
2023-09-27T06:23:16.015Z,100440.34
2023-09-27T06:26:00.110Z,100460.56
2023-09-27T06:28:44.115Z,100457.84
2023-09-27T06:31:28.693Z,100453.53
2023-09-27T06:34:12.546Z,100474.75
2023-09-27T06:36:57.942Z,100457.03
2023-09-27T06:39:42.437Z,100464.91
2023-09-27T06:42:26.440Z,100451.06
2023-09-27T06:45:11.592Z,100453.56
2023-09-27T06:47:57.515Z,100464.66
2023-09-27T06:50:43.572Z,100461.69
2023-09-27T06:53:33.104Z,100428.16
2023-09-27T06:56:17.653Z,100457.44
2023-09-27T06:59:02.049Z,100459.81
2023-09-27T07:01:46.109Z,100434.19
2023-09-27T07:04:29.953Z,100482.44
2023-09-27T07:07:14.747Z,100459.34
2023-09-27T07:10:00.166Z,100445.03
2023-09-27T07:12:44.374Z,100441.75
2023-09-27T07:15:28.529Z,100462.91
2023-09-27T07:18:12.526Z,100482.16
2023-09-27T07:20:56.818Z,100469.91
2023-09-27T07:23:40.840Z,100453.34
2023-09-27T07:26:26.363Z,100462.00
2023-09-27T07:29:10.916Z,100454.25
2023-09-27T07:31:54.881Z,100458.97
2023-09-27T07:34:39.059Z,100471.00
2023-09-27T07:37:23.066Z,100472.69
2023-09-27T07:40:11.003Z,100450.38
2023-09-27T07:42:56.535Z,100468.97
2023-09-27T07:45:43.523Z,100454.47
2023-09-27T07:48:27.733Z,100493.31
2023-09-27T07:51:15.706Z,100459.00
2023-09-27T07:53:59.768Z,100435.88
2023-09-27T07:56:45.207Z,100502.66
2023-09-27T07:59:32.514Z,100476.34
2023-09-27T08:02:16.732Z,100439.66
2023-09-27T08:05:01.015Z,100448.50
2023-09-27T08:07:46.847Z,100464.97
2023-09-27T08:10:32.048Z,100485.47
2023-09-27T08:13:17.519Z,100454.69
2023-09-27T08:16:05.163Z,100449.00
2023-09-27T08:18:49.442Z,100469.41
2023-09-27T08:21:33.566Z,100491.72
2023-09-27T08:24:18.661Z,100437.06
2023-09-27T08:27:03.251Z,100480.00
2023-09-27T08:29:47.816Z,100436.06
2023-09-27T08:32:33.614Z,100463.13
2023-09-27T08:35:18.470Z,100396.97
2023-09-27T08:38:02.623Z,100464.66
2023-09-27T08:40:48.400Z,100474.97
2023-09-27T08:43:34.618Z,100468.47
2023-09-27T08:46:20.122Z,100464.69
2023-09-27T08:49:06.103Z,100480.00
2023-09-27T08:51:51.432Z,100474.09
2023-09-27T08:54:35.464Z,100475.47
2023-09-27T08:57:19.954Z,100483.06
2023-09-27T09:00:08.258Z,100489.28
2023-09-27T09:02:59.585Z,100482.94
2023-09-27T09:05:46.784Z,100479.97
2023-09-27T09:08:43.370Z,100483.59
2023-09-27T09:11:28.546Z,100483.59
2023-09-27T09:14:12.564Z,100487.16
2023-09-27T09:16:56.883Z,100485.09
2023-09-27T09:19:44.818Z,100498.94
2023-09-27T09:22:31.909Z,100460.34
2023-09-27T09:25:15.867Z,100485.34
2023-09-27T09:28:08.894Z,100469.69
2023-09-27T09:31:05.414Z,100487.69
2023-09-27T09:34:04.209Z,100434.88
2023-09-27T09:36:52.328Z,100501.06
2023-09-27T09:39:38.606Z,100461.44
2023-09-27T09:42:34.385Z,100490.38
2023-09-27T09:45:19.131Z,100476.81
2023-09-27T09:48:04.180Z,100489.88
2023-09-27T09:50:50.909Z,100489.69
2023-09-27T09:53:40.115Z,100479.41
2023-09-27T09:56:33.199Z,100486.13
2023-09-27T09:59:27.296Z,100469.84
2023-09-27T10:02:21.637Z,100479.91
2023-09-27T10:05:09.153Z,100479.91
2023-09-27T10:07:54.051Z,100470.56
2023-09-27T10:10:38.941Z,100481.84
2023-09-27T10:13:24.982Z,100455.44
2023-09-27T10:16:11.375Z,100464.69
2023-09-27T10:18:57.387Z,100461.78
2023-09-27T10:22:05.847Z,100462.19
2023-09-27T10:24:50.655Z,100458.75
2023-09-27T10:28:09.216Z,100476.25
2023-09-27T10:31:13.468Z,100469.53
2023-09-27T10:33:57.705Z,100470.25
2023-09-27T10:36:59.685Z,100467.97
2023-09-27T10:40:20.530Z,100464.06
2023-09-27T10:43:05.495Z,100469.38
2023-09-27T10:45:57.479Z,100470.41
2023-09-27T10:48:44.668Z,100463.88
2023-09-27T10:51:29.099Z,100455.31
2023-09-27T10:54:13.461Z,100455.19
2023-09-27T10:56:57.770Z,100447.72
2023-09-27T10:59:42.689Z,100453.81
2023-09-27T11:02:31.082Z,100439.66
2023-09-27T11:05:16.728Z,100450.03
2023-09-27T11:08:00.892Z,100409.59
2023-09-27T11:10:45.008Z,100442.56
2023-09-27T11:13:31.030Z,100459.44
2023-09-27T11:16:16.907Z,100470.78
2023-09-27T11:19:01.101Z,100385.78
2023-09-27T11:21:47.156Z,100445.91
2023-09-27T11:24:39.861Z,100452.94
2023-09-27T11:27:24.279Z,100434.97
2023-09-27T11:30:11.255Z,100443.38
2023-09-27T11:32:55.300Z,100439.16
2023-09-27T11:35:48.962Z,100450.41
2023-09-27T11:38:34.381Z,100461.91
2023-09-27T11:41:20.938Z,100440.38
2023-09-27T11:44:17.925Z,100435.31
2023-09-27T11:47:09.121Z,100451.34
2023-09-27T11:49:53.621Z,100440.91
2023-09-27T11:52:37.659Z,100438.91
2023-09-27T11:55:23.074Z,100408.94
2023-09-27T11:58:07.063Z,100439.31
2023-09-27T12:00:50.989Z,100438.44
2023-09-27T12:03:35.327Z,100444.13
2023-09-27T12:06:19.757Z,100414.38
2023-09-27T12:09:06.616Z,100434.56
2023-09-27T12:11:52.170Z,100418.22
2023-09-27T12:14:36.644Z,100427.75
2023-09-27T12:17:21.141Z,100434.88
2023-09-27T12:20:06.483Z,100429.13
2023-09-27T12:22:51.601Z,100428.19
2023-09-27T12:25:35.745Z,100425.44
2023-09-27T12:28:22.059Z,100418.03
2023-09-27T12:31:07.276Z,100406.00
2023-09-27T12:33:51.850Z,100413.66
2023-09-27T12:36:36.109Z,100395.38
2023-09-27T12:39:20.799Z,100421.28
2023-09-27T12:42:05.459Z,100405.88
2023-09-27T12:44:51.806Z,100412.81
2023-09-27T12:47:36.305Z,100414.31
2023-09-27T12:50:25.331Z,100397.28
2023-09-27T12:53:09.598Z,100406.19
2023-09-27T12:55:53.618Z,100397.47
2023-09-27T12:58:37.720Z,100411.94
2023-09-27T13:01:23.142Z,100404.50
2023-09-27T13:04:08.362Z,100379.25
2023-09-27T13:06:53.065Z,100399.16
2023-09-27T13:09:37.429Z,100407.53
2023-09-27T13:12:21.488Z,100393.69
2023-09-27T13:15:07.156Z,100391.16
2023-09-27T13:17:52.759Z,100385.53
2023-09-27T13:20:36.938Z,100396.88
2023-09-27T13:23:21.192Z,100381.78
2023-09-27T13:26:05.566Z,100405.28
2023-09-27T13:28:49.688Z,100318.31
2023-09-27T13:31:34.848Z,100419.81
2023-09-27T13:34:20.541Z,100389.94
2023-09-27T13:37:04.985Z,100400.59
2023-09-27T13:39:49.215Z,100396.09
2023-09-27T13:42:34.000Z,100372.84
2023-09-27T13:45:18.400Z,100405.56
2023-09-27T13:48:02.962Z,100400.13
2023-09-27T13:50:48.935Z,100400.63
2023-09-27T13:53:33.277Z,100393.88
2023-09-27T13:56:17.529Z,100392.53
2023-09-27T13:59:01.650Z,100379.69
2023-09-27T14:01:45.772Z,100376.66
2023-09-27T14:04:29.780Z,100394.59
2023-09-27T14:07:15.423Z,100396.41
2023-09-27T14:10:00.201Z,100393.53
2023-09-27T14:12:44.696Z,100389.66
2023-09-27T14:15:28.809Z,100387.78
2023-09-27T14:18:13.162Z,100401.47
2023-09-27T14:20:57.341Z,100402.19
2023-09-27T14:23:44.356Z,100402.53
2023-09-27T14:26:28.669Z,100381.06
2023-09-27T14:29:22.260Z,100395.59
2023-09-27T14:32:18.369Z,100388.31
2023-09-27T14:35:02.791Z,100373.91
2023-09-27T14:37:47.989Z,100410.09
2023-09-27T14:40:33.563Z,100399.81
2023-09-27T14:43:19.134Z,100399.47
2023-09-27T14:46:03.275Z,100410.69
2023-09-27T14:48:47.596Z,100400.94
2023-09-27T14:51:31.707Z,100400.19
2023-09-27T14:54:16.242Z,100403.06
2023-09-27T14:57:01.850Z,100398.03
2023-09-27T14:59:46.281Z,100405.25
2023-09-27T15:02:32.389Z,100413.59
2023-09-27T15:05:16.872Z,100406.75
2023-09-27T15:08:03.430Z,100406.69
2023-09-27T15:10:47.699Z,100377.16
2023-09-27T15:13:35.270Z,100396.88
2023-09-27T15:16:20.630Z,100366.53
2023-09-27T15:19:05.223Z,100402.78
2023-09-27T15:21:49.834Z,100397.56
2023-09-27T15:24:40.969Z,100405.44
2023-09-27T15:27:27.518Z,100405.34
2023-09-27T15:30:15.788Z,100410.31
2023-09-27T15:33:00.164Z,100403.22
2023-09-27T15:35:59.750Z,100389.09
2023-09-27T15:38:46.410Z,100408.13
2023-09-27T15:41:31.382Z,100422.38
2023-09-27T15:44:15.688Z,100411.25
2023-09-27T15:47:01.601Z,100410.09
2023-09-27T15:49:48.379Z,100416.69
2023-09-27T15:52:36.717Z,100415.03
2023-09-27T15:55:28.204Z,100389.56
2023-09-27T15:58:14.032Z,100399.72
2023-09-27T16:00:58.484Z,100403.63
2023-09-27T16:03:44.183Z,100384.56
2023-09-27T16:06:30.900Z,100419.19
2023-09-27T16:09:16.824Z,100406.63
2023-09-27T16:12:03.361Z,100399.34
2023-09-27T16:14:47.473Z,100402.97
2023-09-27T16:17:31.627Z,100428.13
2023-09-27T16:20:17.506Z,100390.06
2023-09-27T16:23:01.775Z,100366.56
2023-09-27T16:25:49.950Z,100415.03
2023-09-27T16:28:34.553Z,100409.72
2023-09-27T16:31:22.609Z,100381.28
2023-09-27T16:34:07.047Z,100412.88
2023-09-27T16:36:53.992Z,100416.25
2023-09-27T16:39:38.472Z,100416.72
2023-09-27T16:42:25.904Z,100412.78
2023-09-27T16:45:11.669Z,100391.78
2023-09-27T16:47:56.177Z,100412.78
2023-09-27T16:50:42.034Z,100413.69
2023-09-27T16:53:29.406Z,100421.84
2023-09-27T16:56:13.946Z,100412.88
2023-09-27T16:58:58.325Z,100410.00
2023-09-27T17:01:42.501Z,100428.44
2023-09-27T17:04:29.707Z,100411.81
2023-09-27T17:07:26.707Z,100419.22
2023-09-27T17:10:13.575Z,100417.47
2023-09-27T17:12:58.015Z,100415.56
2023-09-27T17:15:46.986Z,100410.88
2023-09-27T17:18:33.596Z,100400.22
2023-09-27T17:21:18.384Z,100414.03
2023-09-27T17:24:02.764Z,100401.63
2023-09-27T17:26:50.544Z,100375.91
2023-09-27T17:29:35.406Z,100413.06
2023-09-27T17:32:27.184Z,100419.25
2023-09-27T17:35:14.393Z,100419.97
2023-09-27T17:38:03.098Z,100407.13
2023-09-27T17:40:48.987Z,100434.88
2023-09-27T17:43:35.916Z,100419.16
2023-09-27T17:46:24.032Z,100411.13
2023-09-27T17:49:09.557Z,100384.78
2023-09-27T17:51:54.143Z,100423.25
2023-09-27T17:54:38.279Z,100417.88
2023-09-27T17:57:22.372Z,100423.13
2023-09-27T18:00:10.034Z,100413.69
2023-09-27T18:02:54.572Z,100416.50
2023-09-27T18:05:39.192Z,100416.13
2023-09-27T18:08:24.099Z,100414.22
2023-09-27T18:11:10.182Z,100410.44
2023-09-27T18:13:54.806Z,100411.13
2023-09-27T18:16:41.533Z,100365.13
2023-09-27T18:19:26.061Z,100410.00
2023-09-27T18:22:10.515Z,100401.13
2023-09-27T18:24:55.446Z,100402.81
2023-09-27T18:27:40.098Z,100402.81
2023-09-27T18:30:24.640Z,100391.25
2023-09-27T18:33:10.482Z,100385.47
2023-09-27T18:35:55.058Z,100402.97
2023-09-27T18:38:39.421Z,100379.38
2023-09-27T18:41:23.933Z,100390.25
2023-09-27T18:44:08.995Z,100398.03
2023-09-27T18:46:53.892Z,100402.41
2023-09-27T18:49:40.336Z,100378.81
2023-09-27T18:52:24.808Z,100405.66
2023-09-27T18:55:10.652Z,100403.53
2023-09-27T18:57:55.313Z,100408.91
2023-09-27T19:00:39.815Z,100364.66
2023-09-27T19:03:25.440Z,100259.13
2023-09-27T19:06:15.853Z,100364.38
2023-09-27T19:09:03.734Z,100394.75
2023-09-27T19:11:49.314Z,100396.19
2023-09-27T19:14:33.575Z,100384.41
2023-09-27T19:17:20.436Z,100393.94
2023-09-27T19:20:06.809Z,100401.28
2023-09-27T19:22:54.582Z,100381.59
2023-09-27T19:25:39.549Z,100398.16
2023-09-27T19:28:28.576Z,100386.00
2023-09-27T19:31:13.340Z,100403.75
2023-09-27T19:33:59.226Z,100391.94
2023-09-27T19:36:43.830Z,100384.72
2023-09-27T19:39:32.820Z,100262.81
2023-09-27T19:42:19.543Z,100386.28
2023-09-27T19:45:06.798Z,100370.72
2023-09-27T19:47:51.475Z,100361.28
2023-09-27T19:50:36.427Z,100364.78
2023-09-27T19:53:20.915Z,100354.88
2023-09-27T19:56:09.852Z,100348.53
2023-09-27T19:58:55.881Z,100350.09
2023-09-27T20:01:40.797Z,100335.13
2023-09-27T20:04:26.031Z,100326.34
2023-09-27T20:07:10.466Z,100349.94
2023-09-27T20:09:55.460Z,100345.00
2023-09-27T20:12:41.014Z,100342.03
2023-09-27T20:15:25.201Z,100345.13
2023-09-27T20:18:09.134Z,100329.03
2023-09-27T20:20:53.225Z,100345.28
2023-09-27T20:23:37.100Z,100343.41
2023-09-27T20:26:21.133Z,100340.72
2023-09-27T20:29:06.786Z,100343.28
2023-09-27T20:31:51.126Z,100331.13
2023-09-27T20:34:35.212Z,100336.50
2023-09-27T20:37:19.152Z,100342.72
2023-09-27T20:40:03.139Z,100328.28
2023-09-27T20:42:48.358Z,100308.63
2023-09-27T20:45:34.064Z,100318.81
2023-09-27T20:48:18.204Z,100322.03
2023-09-27T20:51:02.174Z,100315.72
2023-09-27T20:53:46.122Z,100316.44
2023-09-27T20:56:30.118Z,100311.63
2023-09-27T20:59:14.127Z,100302.72
2023-09-27T21:01:59.691Z,100267.03
2023-09-27T21:04:43.654Z,100296.84
2023-09-27T21:07:27.506Z,100290.81
2023-09-27T21:10:11.734Z,100286.41
2023-09-27T21:12:55.912Z,100296.31
2023-09-27T21:15:40.767Z,100299.19
2023-09-27T21:18:26.534Z,100306.25
2023-09-27T21:21:10.518Z,100277.91
2023-09-27T21:23:54.861Z,100289.00
2023-09-27T21:26:41.420Z,100296.59
2023-09-27T21:29:26.516Z,100277.66
2023-09-27T21:32:11.142Z,100293.50
2023-09-27T21:34:56.464Z,100251.38
2023-09-27T21:37:40.943Z,100288.75
2023-09-27T21:40:25.352Z,100288.69
2023-09-27T21:43:09.275Z,100286.84
2023-09-27T21:45:53.279Z,100269.63
2023-09-27T21:48:37.454Z,100273.72
2023-09-27T21:51:22.739Z,100285.44
2023-09-27T21:54:06.952Z,100282.91
2023-09-27T21:56:50.873Z,100285.72
2023-09-27T21:59:34.834Z,100285.31
2023-09-27T22:02:19.054Z,100266.97
2023-09-27T22:05:03.771Z,100287.38
2023-09-27T22:07:49.308Z,100277.38
2023-09-27T22:10:36.037Z,100264.97
2023-09-27T22:13:29.651Z,100283.44
2023-09-27T22:16:13.540Z,100296.03
2023-09-27T22:19:02.154Z,100296.59
2023-09-27T22:21:47.513Z,100288.63
2023-09-27T22:24:33.223Z,100275.38
2023-09-27T22:27:17.558Z,100293.19
2023-09-27T22:30:02.130Z,100279.78
2023-09-27T22:32:47.592Z,100284.69
2023-09-27T22:35:32.005Z,100277.91
2023-09-27T22:38:16.527Z,100281.31
2023-09-27T22:41:01.779Z,100268.03
2023-09-27T22:43:46.364Z,100271.81
2023-09-27T22:46:30.305Z,100266.06
2023-09-27T22:49:14.226Z,100261.00
2023-09-27T22:51:58.288Z,100266.75
2023-09-27T22:54:42.269Z,100268.47
2023-09-27T22:57:29.238Z,100271.59
2023-09-27T23:00:14.048Z,100271.59
2023-09-27T23:02:59.177Z,100258.91
2023-09-27T23:05:45.468Z,100260.13
2023-09-27T23:08:30.875Z,100259.44
2023-09-27T23:11:14.751Z,100250.09
2023-09-27T23:14:00.294Z,100261.81
2023-09-27T23:16:47.085Z,100259.81
2023-09-27T23:19:32.694Z,100256.34
2023-09-27T23:22:17.290Z,100257.69
2023-09-27T23:25:33.970Z,100254.16
2023-09-27T23:28:18.779Z,100256.69
2023-09-27T23:31:09.558Z,100243.72
2023-09-27T23:33:54.839Z,100249.16
2023-09-27T23:36:40.420Z,100215.13
2023-09-27T23:39:23.308Z,100249.47
2023-09-27T23:42:22.965Z,100246.22
2023-09-27T23:45:10.650Z,100252.03
2023-09-27T23:47:57.534Z,100206.81
2023-09-27T23:50:42.789Z,100258.59
2023-09-27T23:53:26.622Z,100238.59
2023-09-27T23:56:11.043Z,100242.38
2023-09-27T23:58:58.417Z,100247.09
